KCNM/CNM METAR and TAF weather

Enter ICAO airport designator
Station Type Date Time Source
KCNM METAR 2020/08/14 02:53 UTC NOAA

KCNM 140253Z AUTO 06005KT 10SM CLR 34/08 A2995 RMK AO2 SLP075 T03390083 53013 $


Station Type Date Time Source
KCNM Decoded METAR 2020/08/14 02:53 UTC NOAA

CARLSBAD CAVERN CITY, NM, United States (KCNM) 32-20N 104-16W 985M
Aug 13, 2020 - 10:53 PM EDT / 2020.08.14 0253 UTC
Wind: from the ENE (060 degrees) at 6 MPH (5 KT):0
Visibility: 10 mile(s):0
Sky conditions: clear
Temperature: 93.0 F (33.9 C)
Dew Point: 46.9 F (8.3 C)
Relative Humidity: 20%
Pressure (altimeter): 29.95 in. Hg (1014 hPa)
Pressure tendency: 0.04 inches (1.3 hPa) higher than three hours ago
ob: KCNM 140253Z AUTO 06005KT 10SM CLR 34/08 A2995 RMK AO2 SLP075 T03390083 53013
cycle: 3

Station Type Date Time Source
KCNM TAF 2020/08/13 18:22 UTC NOAA

TAF KCNM 131720Z 1318/1418 18008KT P6SM SCT200

Example: see airport list